createdAt,value
2019-01-29T00:01:29.960Z,21.10
2019-01-29T00:03:58.507Z,19.93
2019-01-29T00:06:27.072Z,20.33
2019-01-29T00:08:55.475Z,22.50
2019-01-29T00:11:23.944Z,26.47
2019-01-29T00:13:52.379Z,20.90
2019-01-29T00:16:20.775Z,18.93
2019-01-29T00:18:49.323Z,17.93
2019-01-29T00:21:17.873Z,22.10
2019-01-29T00:23:46.433Z,22.50
2019-01-29T00:26:14.913Z,21.20
2019-01-29T00:28:44.423Z,18.07
2019-01-29T00:31:12.924Z,24.23
2019-01-29T00:33:41.326Z,27.63
2019-01-29T00:36:09.759Z,21.23
2019-01-29T00:38:38.295Z,20.83
2019-01-29T00:41:10.544Z,26.77
2019-01-29T00:43:39.023Z,26.77
2019-01-29T00:46:07.570Z,24.83
2019-01-29T00:48:36.007Z,22.87
2019-01-29T00:51:04.495Z,33.40
2019-01-29T00:53:33.013Z,24.93
2019-01-29T00:56:01.454Z,25.57
2019-01-29T00:58:29.910Z,20.47
2019-01-29T01:00:58.368Z,21.13
2019-01-29T01:03:26.823Z,20.17
2019-01-29T01:05:55.277Z,26.40
2019-01-29T01:08:23.671Z,27.43
2019-01-29T01:10:53.059Z,20.77
2019-01-29T01:13:21.515Z,23.40
2019-01-29T01:15:49.958Z,19.90
2019-01-29T01:18:18.455Z,27.27
2019-01-29T01:20:46.902Z,24.37
2019-01-29T01:23:15.340Z,22.90
2019-01-29T01:25:43.801Z,20.10
2019-01-29T01:28:12.375Z,22.90
2019-01-29T01:30:40.838Z,27.13
2019-01-29T01:33:09.367Z,16.77
2019-01-29T01:35:37.874Z,24.83
2019-01-29T01:38:06.338Z,22.20
2019-01-29T01:40:34.893Z,20.47
2019-01-29T01:43:03.354Z,20.73
2019-01-29T01:45:31.804Z,21.60
2019-01-29T01:48:00.332Z,20.23
2019-01-29T01:50:28.787Z,18.43
2019-01-29T01:52:59.653Z,27.47
2019-01-29T01:55:28.139Z,21.10
2019-01-29T01:57:56.675Z,16.17
2019-01-29T02:00:25.140Z,24.93
2019-01-29T02:02:53.518Z,21.60
2019-01-29T02:05:22.367Z,28.53
2019-01-29T02:07:50.813Z,20.80
2019-01-29T02:10:26.651Z,19.83
2019-01-29T02:12:55.095Z,21.17
2019-01-29T02:15:23.871Z,25.13
2019-01-29T02:17:52.397Z,19.43
2019-01-29T02:20:20.843Z,13.87
2019-01-29T02:22:49.305Z,17.40
2019-01-29T02:25:17.793Z,24.90
2019-01-29T02:27:46.259Z,20.90
2019-01-29T02:30:15.921Z,21.17
2019-01-29T02:32:44.472Z,18.30
2019-01-29T02:35:12.909Z,20.03
2019-01-29T02:37:41.365Z,17.00
2019-01-29T02:40:12.967Z,19.03
2019-01-29T02:42:41.684Z,21.90
2019-01-29T02:45:29.281Z,20.43
2019-01-29T02:48:17.043Z,21.20
2019-01-29T02:51:04.642Z,25.53
2019-01-29T02:53:52.356Z,26.10
2019-01-29T02:56:39.980Z,23.53
2019-01-29T02:59:27.679Z,25.80
2019-01-29T03:02:15.313Z,22.47
2019-01-29T03:05:02.976Z,23.90
2019-01-29T03:07:50.556Z,25.13
2019-01-29T03:10:38.189Z,22.07
2019-01-29T03:13:25.759Z,26.67
2019-01-29T05:19:24.627Z,74.03
2019-01-29T05:21:53.067Z,76.83
2019-01-29T05:24:21.424Z,91.97
2019-01-29T05:26:49.875Z,80.33
2019-01-29T05:29:37.441Z,75.93
2019-01-29T05:32:25.305Z,72.43
2019-01-29T05:35:12.884Z,78.27
2019-01-29T05:38:00.493Z,79.47
2019-01-29T05:40:48.097Z,85.00
2019-01-29T05:43:16.563Z,71.10
2019-01-29T05:45:45.132Z,91.60
2019-01-29T05:48:32.745Z,83.00
2019-01-29T05:51:20.537Z,88.57
2019-01-29T05:54:15.886Z,110.73
2019-01-29T05:56:57.676Z,116.63
2019-01-29T05:59:45.334Z,97.87
2019-01-29T06:02:35.233Z,111.28
2019-01-29T06:05:22.892Z,94.70
2019-01-29T06:08:10.475Z,101.13
2019-01-29T06:10:58.059Z,78.03
2019-01-29T06:13:45.702Z,84.57
2019-01-29T06:16:33.281Z,82.40
2019-01-29T06:19:20.869Z,81.30
2019-01-29T06:22:08.491Z,79.80
2019-01-29T06:24:37.463Z,72.90
2019-01-29T06:27:25.221Z,71.40
2019-01-29T06:30:12.881Z,76.00
2019-01-29T06:33:00.480Z,81.40
2019-01-29T06:35:48.077Z,92.80
2019-01-29T06:38:35.741Z,86.30
2019-01-29T06:41:23.317Z,85.77
2019-01-29T06:44:10.919Z,77.37
2019-01-29T06:46:39.416Z,77.73
2019-01-29T06:49:07.861Z,73.50
2019-01-29T06:51:55.522Z,66.20
2019-01-29T06:54:43.116Z,69.23
2019-01-29T06:57:30.695Z,64.20
2019-01-29T07:00:18.354Z,57.07
2019-01-29T07:03:05.942Z,62.87
2019-01-29T07:05:34.392Z,61.70
2019-01-29T07:08:02.845Z,63.63
2019-01-29T07:10:50.523Z,61.87
2019-01-29T07:13:38.077Z,62.43
2019-01-29T07:16:44.784Z,65.80
2019-01-29T07:19:51.480Z,66.13
2019-01-29T07:22:39.081Z,65.57
2019-01-29T07:25:26.653Z,61.90
2019-01-29T07:45:56.397Z,55.43
2019-01-29T07:48:44.010Z,63.97
2019-01-29T07:51:31.625Z,61.87
2019-01-29T07:54:19.213Z,64.73
2019-01-29T07:57:06.772Z,62.20
2019-01-29T07:59:54.345Z,65.40
2019-01-29T08:02:41.961Z,62.80
2019-01-29T08:05:29.520Z,69.03
2019-01-29T08:07:58.028Z,65.03
2019-01-29T08:10:26.560Z,81.20
2019-01-29T08:13:14.332Z,65.90
2019-01-29T08:16:01.907Z,70.27
2019-01-29T08:18:49.499Z,73.10
2019-01-29T08:21:37.084Z,63.50
2019-01-29T08:24:24.670Z,65.40
2019-01-29T08:26:53.125Z,59.83
2019-01-29T08:29:21.704Z,64.27
2019-01-29T08:32:09.293Z,65.23
2019-01-29T08:34:56.915Z,62.27
2019-01-29T08:37:44.518Z,70.40
2019-01-29T08:40:32.060Z,64.50
2019-01-29T08:43:19.750Z,67.53
2019-01-29T08:45:48.249Z,65.10
2019-01-29T08:48:17.123Z,71.43
2019-01-29T08:51:04.733Z,68.93
2019-01-29T08:53:52.285Z,68.67
2019-01-29T08:56:39.874Z,68.47
2019-01-29T08:59:27.424Z,72.83
2019-01-29T09:01:55.872Z,70.63
2019-01-29T09:04:24.296Z,70.80
2019-01-29T09:06:52.651Z,74.03
2019-01-29T09:09:21.103Z,71.73
2019-01-29T09:11:49.554Z,76.67
2019-01-29T09:14:17.895Z,67.13
2019-01-29T09:16:46.340Z,77.03
2019-01-29T09:19:14.848Z,80.10
2019-01-29T09:21:43.284Z,74.77
2019-01-29T09:24:11.734Z,66.03
2019-01-29T09:26:40.232Z,69.07
2019-01-29T09:29:08.579Z,71.93
2019-01-29T09:31:37.012Z,68.60
2019-01-29T09:34:05.432Z,68.60
2019-01-29T09:36:34.146Z,70.70
2019-01-29T09:39:03.146Z,62.60
2019-01-29T09:41:31.612Z,60.93
2019-01-29T09:43:59.955Z,54.53
2019-01-29T09:46:28.409Z,52.83
2019-01-29T09:48:56.775Z,55.33
2019-01-29T09:51:25.200Z,56.53
2019-01-29T09:53:53.778Z,54.43
2019-01-29T09:56:22.197Z,51.07
2019-01-29T09:58:50.648Z,56.03
2019-01-29T10:01:19.540Z,50.67
2019-01-29T10:03:48.015Z,53.80
2019-01-29T10:06:17.603Z,55.93
2019-01-29T10:08:46.063Z,52.47
2019-01-29T10:11:14.561Z,56.33
2019-01-29T10:13:43.054Z,54.83
2019-01-29T10:16:11.483Z,48.90
2019-01-29T10:18:39.931Z,53.33
2019-01-29T10:21:08.387Z,46.17
2019-01-29T10:23:36.854Z,49.70
2019-01-29T10:26:05.336Z,43.20
2019-01-29T10:28:33.963Z,42.70
2019-01-29T10:31:02.730Z,48.40
2019-01-29T10:33:31.175Z,51.90
2019-01-29T10:35:59.661Z,44.80
2019-01-29T10:38:28.193Z,47.77
2019-01-29T10:40:56.642Z,43.03
2019-01-29T10:43:25.273Z,43.97
2019-01-29T10:45:53.998Z,48.17
2019-01-29T10:48:22.446Z,41.27
2019-01-29T10:50:51.057Z,42.60
2019-01-29T10:53:19.475Z,41.17
2019-01-29T10:55:47.981Z,36.90
2019-01-29T10:58:16.423Z,29.77
2019-01-29T11:00:45.070Z,40.10
2019-01-29T11:03:13.506Z,40.90
2019-01-29T11:05:41.944Z,44.20
2019-01-29T11:08:10.641Z,37.27
2019-01-29T11:10:39.011Z,28.00
2019-01-29T11:13:07.518Z,35.83
2019-01-29T11:15:37.174Z,35.63
2019-01-29T11:18:07.694Z,35.40
2019-01-29T11:20:36.127Z,35.23
2019-01-29T11:23:04.843Z,35.47
2019-01-29T11:25:33.287Z,31.60
2019-01-29T11:28:01.754Z,28.07
2019-01-29T11:30:30.325Z,32.77
2019-01-29T11:32:58.764Z,38.00
2019-01-29T11:35:27.250Z,36.07
2019-01-29T11:37:55.683Z,38.10
2019-01-29T11:40:24.864Z,34.43
2019-01-29T11:42:53.320Z,27.13
2019-01-29T11:45:31.929Z,35.27
2019-01-29T11:48:00.371Z,39.17
2019-01-29T11:50:29.019Z,35.13
2019-01-29T11:52:58.692Z,37.20
2019-01-29T11:55:27.219Z,28.37
2019-01-29T11:57:55.601Z,30.87
2019-01-29T12:00:32.585Z,29.27
2019-01-29T12:03:01.352Z,32.67
2019-01-29T12:05:29.720Z,33.37
2019-01-29T12:07:58.287Z,29.20
2019-01-29T12:10:33.136Z,25.67
2019-01-29T12:13:02.647Z,21.87
2019-01-29T12:15:31.121Z,22.87
2019-01-29T12:17:59.501Z,19.17
2019-01-29T12:20:27.949Z,19.97
2019-01-29T12:22:56.379Z,18.33
2019-01-29T12:25:25.011Z,18.33
2019-01-29T12:27:53.471Z,19.27
2019-01-29T12:30:22.044Z,22.90
2019-01-29T12:32:50.583Z,18.97
2019-01-29T12:35:19.108Z,21.07
2019-01-29T12:37:48.637Z,20.13
2019-01-29T12:40:17.487Z,19.33
2019-01-29T12:42:46.019Z,15.03
2019-01-29T12:45:14.726Z,22.10
2019-01-29T12:47:43.174Z,13.93
2019-01-29T12:50:13.454Z,19.50
2019-01-29T12:53:13.448Z,18.33
2019-01-29T12:55:41.986Z,20.77
2019-01-29T12:58:10.455Z,15.07
2019-01-29T13:00:42.678Z,14.40
2019-01-29T13:03:11.150Z,11.77
2019-01-29T13:05:39.615Z,10.80
2019-01-29T13:08:08.097Z,13.70
2019-01-29T13:10:36.538Z,10.23
2019-01-29T13:13:05.082Z,9.80
2019-01-29T13:15:33.583Z,12.23
2019-01-29T13:18:02.095Z,10.60
2019-01-29T13:20:30.651Z,11.53
2019-01-29T13:22:59.097Z,10.90
2019-01-29T13:25:27.531Z,10.87
2019-01-29T13:27:55.988Z,16.77
2019-01-29T13:30:26.146Z,10.20
2019-01-29T13:32:54.572Z,9.70
2019-01-29T13:35:23.922Z,14.80
2019-01-29T13:37:52.360Z,13.80
2019-01-29T13:40:20.835Z,12.83
2019-01-29T13:42:49.395Z,11.63
2019-01-29T13:45:17.935Z,15.43
2019-01-29T13:47:46.442Z,12.33
2019-01-29T13:50:16.156Z,12.93
2019-01-29T13:52:44.591Z,14.17
2019-01-29T13:55:13.739Z,16.63
2019-01-29T13:57:42.175Z,9.97
2019-01-29T14:00:15.263Z,12.53
2019-01-29T14:02:43.787Z,9.20
2019-01-29T14:05:12.255Z,10.00
2019-01-29T14:07:40.619Z,6.37
2019-01-29T14:10:09.432Z,11.87
2019-01-29T14:12:37.854Z,10.53
2019-01-29T14:15:06.902Z,9.33
2019-01-29T14:17:37.287Z,11.30
2019-01-29T14:20:08.857Z,8.73
2019-01-29T14:22:37.342Z,12.17
2019-01-29T14:25:05.907Z,9.33
2019-01-29T14:27:34.508Z,9.93
2019-01-29T14:30:03.702Z,7.67
2019-01-29T14:32:32.368Z,11.63
2019-01-29T14:35:00.765Z,9.30
2019-01-29T14:37:30.684Z,9.33
2019-01-29T14:40:16.520Z,12.67
2019-01-29T14:42:46.398Z,6.30
2019-01-29T14:45:17.245Z,8.37
2019-01-29T14:47:45.695Z,11.13
2019-01-29T14:50:14.387Z,6.67
2019-01-29T14:52:42.839Z,6.57
2019-01-29T14:55:11.271Z,6.97
2019-01-29T14:57:41.208Z,7.90
2019-01-29T15:00:13.478Z,7.03
2019-01-29T15:02:44.220Z,8.60
2019-01-29T15:05:13.116Z,7.10
2019-01-29T15:07:41.547Z,11.33
2019-01-29T15:10:10.872Z,20.37
2019-01-29T15:12:39.418Z,13.03
2019-01-29T15:15:11.795Z,14.40
2019-01-29T15:17:47.798Z,12.60
2019-01-29T15:20:16.630Z,8.63
2019-01-29T15:22:46.022Z,13.17
2019-01-29T15:25:14.494Z,8.17
2019-01-29T15:27:43.103Z,12.30
2019-01-29T15:30:16.239Z,7.23
2019-01-29T15:32:44.670Z,12.57
2019-01-29T15:35:13.301Z,9.37
2019-01-29T15:37:43.558Z,8.20
2019-01-29T15:40:17.669Z,13.20
2019-01-29T15:42:46.296Z,12.40
2019-01-29T15:45:15.932Z,15.30
2019-01-29T15:47:45.442Z,11.87
2019-01-29T15:50:19.820Z,14.17
2019-01-29T15:52:48.974Z,8.80
2019-01-29T15:55:17.539Z,13.57
2019-01-29T15:57:46.142Z,8.97
2019-01-29T16:00:19.480Z,8.60
2019-01-29T16:02:47.931Z,8.07
2019-01-29T16:05:17.585Z,8.70
2019-01-29T16:07:46.052Z,12.93
2019-01-29T16:10:15.893Z,9.37
2019-01-29T16:12:44.397Z,7.00
2019-01-29T16:15:20.326Z,8.40
2019-01-29T16:17:50.959Z,9.77
2019-01-29T16:20:20.052Z,11.03
2019-01-29T16:22:49.723Z,13.13
2019-01-29T16:25:19.064Z,8.90
2019-01-29T16:27:47.600Z,12.43
2019-01-29T16:30:20.200Z,9.80
2019-01-29T16:32:49.817Z,11.33
2019-01-29T16:35:19.427Z,11.60
2019-01-29T16:37:51.200Z,11.23
2019-01-29T16:40:20.919Z,10.07
2019-01-29T16:42:56.576Z,13.17
2019-01-29T16:45:30.680Z,10.30
2019-01-29T16:48:03.386Z,11.17
2019-01-29T16:50:31.837Z,11.33
2019-01-29T16:53:00.364Z,10.57
2019-01-29T16:55:28.939Z,11.23
2019-01-29T16:58:08.623Z,9.50
2019-01-29T17:00:37.205Z,11.03
2019-01-29T17:03:11.253Z,12.17
2019-01-29T17:05:42.483Z,9.50
2019-01-29T17:08:12.026Z,12.07
2019-01-29T17:10:40.576Z,14.10
2019-01-29T17:13:08.997Z,15.10
2019-01-29T17:15:37.506Z,11.97
2019-01-29T17:18:06.585Z,10.13
2019-01-29T17:20:36.486Z,14.83
2019-01-29T17:23:10.566Z,12.20
2019-01-29T17:25:38.994Z,14.40
2019-01-29T17:28:07.431Z,12.43
2019-01-29T17:30:40.003Z,12.60
2019-01-29T17:33:08.695Z,16.00
2019-01-29T17:35:37.845Z,13.30
2019-01-29T17:38:09.811Z,11.73
2019-01-29T17:40:42.651Z,15.68
2019-01-29T17:43:11.085Z,12.13
2019-01-29T17:45:40.590Z,17.50
2019-01-29T17:48:09.195Z,16.33
2019-01-29T17:50:38.307Z,11.90
2019-01-29T17:53:06.839Z,13.07
2019-01-29T17:55:36.551Z,12.60
2019-01-29T17:58:05.363Z,16.43
2019-01-29T18:00:34.773Z,13.97
2019-01-29T18:03:03.975Z,16.10
2019-01-29T18:05:34.874Z,13.13
2019-01-29T18:08:02.605Z,14.10
2019-01-29T18:10:31.051Z,13.23
2019-01-29T18:12:59.459Z,13.23
2019-01-29T18:15:28.091Z,12.83
2019-01-29T18:17:56.828Z,15.13
2019-01-29T18:20:29.037Z,13.07
2019-01-29T18:22:57.664Z,13.40
2019-01-29T18:25:26.372Z,14.57
2019-01-29T18:28:00.941Z,19.93
2019-01-29T18:30:28.673Z,17.23
2019-01-29T18:32:57.468Z,17.37
2019-01-29T18:35:25.989Z,17.77
2019-01-29T18:37:54.891Z,19.87
2019-01-29T18:40:27.768Z,28.33
2019-01-29T18:42:56.222Z,23.13
2019-01-29T18:45:24.730Z,26.57
2019-01-29T18:47:53.395Z,27.13
2019-01-29T18:50:21.943Z,23.27
2019-01-29T18:52:53.403Z,24.40
2019-01-29T18:55:21.838Z,22.77
2019-01-29T18:57:50.479Z,20.20
2019-01-29T19:00:21.296Z,24.23
2019-01-29T19:02:50.119Z,26.57
2019-01-29T19:05:19.312Z,26.03
2019-01-29T19:07:47.811Z,25.50
2019-01-29T19:10:16.825Z,22.90
2019-01-29T19:12:45.633Z,19.80
2019-01-29T19:15:18.012Z,21.30
2019-01-29T19:17:46.452Z,23.03
2019-01-29T19:20:16.518Z,22.93
2019-01-29T19:22:44.996Z,25.93
2019-01-29T19:25:14.267Z,20.70
2019-01-29T19:27:48.596Z,24.47
2019-01-29T19:30:18.523Z,26.30
2019-01-29T19:32:46.965Z,34.33
2019-01-29T19:35:15.449Z,26.97
2019-01-29T19:37:44.206Z,23.53
2019-01-29T19:40:12.923Z,21.47
2019-01-29T19:42:41.411Z,23.23
2019-01-29T19:45:11.523Z,18.27
2019-01-29T19:47:40.034Z,17.03
2019-01-29T19:50:12.591Z,18.23
2019-01-29T19:52:41.191Z,20.33
2019-01-29T19:55:10.811Z,22.20
2019-01-29T19:57:42.289Z,25.40
2019-01-29T20:00:13.987Z,19.83
2019-01-29T20:02:42.407Z,22.73
2019-01-29T20:05:10.911Z,21.20
2019-01-29T20:07:39.369Z,27.77
2019-01-29T20:10:08.320Z,18.90
2019-01-29T20:12:39.207Z,25.37
2019-01-29T20:15:08.528Z,17.80
2019-01-29T20:17:36.956Z,19.37
2019-01-29T20:20:05.551Z,20.07
2019-01-29T20:22:36.852Z,25.23
2019-01-29T20:25:05.444Z,24.03
2019-01-29T20:27:36.009Z,24.45
2019-01-29T20:30:05.695Z,26.47
2019-01-29T20:32:34.165Z,28.50
2019-01-29T20:35:02.628Z,27.53
2019-01-29T20:37:31.512Z,23.23
2019-01-29T20:40:00.557Z,27.40
2019-01-29T20:42:29.082Z,27.03
2019-01-29T20:44:59.775Z,25.87
2019-01-29T20:47:28.436Z,23.80
2019-01-29T20:49:58.328Z,17.77
2019-01-29T20:52:28.367Z,20.93
2019-01-29T20:55:00.972Z,18.10
2019-01-29T20:57:29.481Z,18.30
2019-01-29T21:00:00.049Z,20.50
2019-01-29T21:02:29.515Z,18.40
2019-01-29T21:04:57.893Z,20.77
2019-01-29T21:07:26.360Z,19.27
2019-01-29T21:09:55.433Z,20.43
2019-01-29T21:12:23.911Z,22.30
2019-01-29T21:14:52.431Z,19.53
2019-01-29T21:17:25.318Z,19.97
2019-01-29T21:19:53.922Z,26.73
2019-01-29T21:22:22.450Z,17.10
2019-01-29T21:24:50.894Z,16.33
2019-01-29T21:27:19.367Z,20.40
2019-01-29T21:29:56.845Z,18.20
2019-01-29T21:32:25.446Z,13.90
2019-01-29T21:34:55.410Z,19.63
2019-01-29T21:37:24.004Z,15.17
2019-01-29T21:39:57.917Z,15.00
2019-01-29T21:42:26.660Z,18.63
2019-01-29T21:44:55.423Z,13.57
2019-01-29T21:47:24.156Z,12.43
2019-01-29T21:49:54.542Z,11.33
2019-01-29T21:52:23.054Z,14.77
2019-01-29T21:54:51.555Z,13.43
2019-01-29T21:57:20.023Z,14.00
2019-01-29T21:59:48.505Z,14.50
2019-01-29T22:02:17.054Z,13.20
2019-01-29T22:04:45.519Z,12.87
2019-01-29T22:07:14.026Z,13.97
2019-01-29T22:09:42.414Z,11.73
2019-01-29T22:12:10.979Z,11.20
2019-01-29T22:14:39.409Z,16.47
2019-01-29T22:17:07.863Z,15.70
2019-01-29T22:19:37.404Z,16.40
2019-01-29T22:22:24.986Z,14.37
2019-01-29T22:25:12.648Z,11.90
2019-01-29T22:28:00.272Z,14.10
2019-01-29T22:30:47.864Z,14.20
2019-01-29T22:33:35.532Z,11.70
2019-01-29T22:36:23.150Z,15.53
2019-01-29T22:39:10.728Z,16.57
2019-01-29T22:41:58.376Z,17.07
2019-01-29T22:44:45.996Z,18.80
2019-01-29T22:47:33.563Z,15.17
2019-01-29T22:50:21.166Z,18.27
2019-01-29T22:53:08.796Z,18.23
2019-01-29T22:55:56.471Z,15.10
2019-01-29T22:58:24.927Z,13.73
2019-01-29T23:00:57.786Z,15.10
2019-01-29T23:03:30.587Z,13.80
2019-01-29T23:06:04.495Z,11.60
2019-01-29T23:08:32.948Z,9.03
2019-01-29T23:11:01.388Z,11.77
2019-01-29T23:13:29.912Z,9.83
2019-01-29T23:15:58.343Z,10.80
2019-01-29T23:18:26.803Z,13.60
2019-01-29T23:20:55.330Z,14.37
2019-01-29T23:23:23.762Z,10.50
2019-01-29T23:25:52.244Z,9.40
2019-01-29T23:28:20.628Z,12.97
2019-01-29T23:30:49.088Z,11.33
2019-01-29T23:33:17.663Z,13.43
2019-01-29T23:35:46.103Z,13.77
2019-01-29T23:38:14.584Z,13.07
2019-01-29T23:40:43.101Z,13.27
2019-01-29T23:43:11.747Z,13.73
2019-01-29T23:45:40.199Z,12.47
2019-01-29T23:48:08.668Z,19.43
2019-01-29T23:50:37.138Z,24.60
2019-01-29T23:53:05.615Z,18.20
2019-01-29T23:55:34.111Z,17.33
2019-01-29T23:58:02.475Z,14.63
